sensor_id;sensor_type;location;lat;lon;timestamp;P1;P2;P0
42410;PMS5003;28056;51.112;0.984;2022-11-14T00:00:49;38;38;
42410;PMS5003;28056;51.112;0.984;2022-11-14T00:03:16;43;42;
42410;PMS5003;28056;51.112;0.984;2022-11-14T00:05:44;46;44;
42410;PMS5003;28056;51.112;0.984;2022-11-14T00:08:13;38;34;
42410;PMS5003;28056;51.112;0.984;2022-11-14T00:10:44;37;33;
42410;PMS5003;28056;51.112;0.984;2022-11-14T00:13:12;39;36;
42410;PMS5003;28056;51.112;0.984;2022-11-14T00:15:39;34;33;
42410;PMS5003;28056;51.112;0.984;2022-11-14T00:18:07;34;32;
42410;PMS5003;28056;51.112;0.984;2022-11-14T00:20:34;36;31;
42410;PMS5003;28056;51.112;0.984;2022-11-14T00:23:02;33;33;
42410;PMS5003;28056;51.112;0.984;2022-11-14T00:25:29;32;27;
42410;PMS5003;28056;51.112;0.984;2022-11-14T00:27:57;31;30;
42410;PMS5003;28056;51.112;0.984;2022-11-14T00:30:25;32;28;
42410;PMS5003;28056;51.112;0.984;2022-11-14T00:32:53;28;27;
42410;PMS5003;28056;51.112;0.984;2022-11-14T00:35:20;32;30;
42410;PMS5003;28056;51.112;0.984;2022-11-14T00:37:49;32;27;
42410;PMS5003;28056;51.112;0.984;2022-11-14T00:40:16;36;32;
42410;PMS5003;28056;51.112;0.984;2022-11-14T00:42:44;30;25;
42410;PMS5003;28056;51.112;0.984;2022-11-14T00:45:12;25;25;
42410;PMS5003;28056;51.112;0.984;2022-11-14T00:47:40;26;25;
42410;PMS5003;28056;51.112;0.984;2022-11-14T00:50:09;21;21;
42410;PMS5003;28056;51.112;0.984;2022-11-14T00:52:36;21;21;
42410;PMS5003;28056;51.112;0.984;2022-11-14T00:55:05;25;25;
42410;PMS5003;28056;51.112;0.984;2022-11-14T00:57:33;20;20;
42410;PMS5003;28056;51.112;0.984;2022-11-14T01:00:00;21;20;
42410;PMS5003;28056;51.112;0.984;2022-11-14T01:04:47;20;20;
42410;PMS5003;28056;51.112;0.984;2022-11-14T01:07:15;25;19;
42410;PMS5003;28056;51.112;0.984;2022-11-14T01:09:43;19;18;
42410;PMS5003;28056;51.112;0.984;2022-11-14T01:12:11;18;15;
42410;PMS5003;28056;51.112;0.984;2022-11-14T01:14:38;18;14;
42410;PMS5003;28056;51.112;0.984;2022-11-14T01:17:06;20;16;
42410;PMS5003;28056;51.112;0.984;2022-11-14T01:19:33;15;14;
42410;PMS5003;28056;51.112;0.984;2022-11-14T01:22:01;20;16;
42410;PMS5003;28056;51.112;0.984;2022-11-14T01:24:30;14;13;
42410;PMS5003;28056;51.112;0.984;2022-11-14T01:26:58;15;15;
42410;PMS5003;28056;51.112;0.984;2022-11-14T01:29:26;23;20;
42410;PMS5003;28056;51.112;0.984;2022-11-14T01:31:53;16;15;
42410;PMS5003;28056;51.112;0.984;2022-11-14T01:34:20;16;16;
42410;PMS5003;28056;51.112;0.984;2022-11-14T01:36:48;18;15;
42410;PMS5003;28056;51.112;0.984;2022-11-14T01:39:16;20;18;
42410;PMS5003;28056;51.112;0.984;2022-11-14T01:41:44;21;18;
42410;PMS5003;28056;51.112;0.984;2022-11-14T01:44:11;18;16;
42410;PMS5003;28056;51.112;0.984;2022-11-14T01:46:40;14;14;
42410;PMS5003;28056;51.112;0.984;2022-11-14T01:49:14;16;15;
42410;PMS5003;28056;51.112;0.984;2022-11-14T01:51:45;18;16;
42410;PMS5003;28056;51.112;0.984;2022-11-14T01:54:16;16;15;
42410;PMS5003;28056;51.112;0.984;2022-11-14T01:56:49;19;13;
42410;PMS5003;28056;51.112;0.984;2022-11-14T01:59:21;15;15;
42410;PMS5003;28056;51.112;0.984;2022-11-14T02:01:52;16;15;
42410;PMS5003;28056;51.112;0.984;2022-11-14T02:04:21;16;16;
42410;PMS5003;28056;51.112;0.984;2022-11-14T02:06:52;20;16;
42410;PMS5003;28056;51.112;0.984;2022-11-14T02:09:23;19;16;
42410;PMS5003;28056;51.112;0.984;2022-11-14T02:11:51;24;18;
42410;PMS5003;28056;51.112;0.984;2022-11-14T02:14:21;16;16;
42410;PMS5003;28056;51.112;0.984;2022-11-14T02:16:49;14;14;
42410;PMS5003;28056;51.112;0.984;2022-11-14T02:19:17;19;15;
42410;PMS5003;28056;51.112;0.984;2022-11-14T02:21:44;23;20;
42410;PMS5003;28056;51.112;0.984;2022-11-14T02:24:12;14;14;
42410;PMS5003;28056;51.112;0.984;2022-11-14T02:26:39;17;15;
42410;PMS5003;28056;51.112;0.984;2022-11-14T02:29:09;15;15;
42410;PMS5003;28056;51.112;0.984;2022-11-14T02:31:37;19;15;
42410;PMS5003;28056;51.112;0.984;2022-11-14T02:34:04;18;18;
42410;PMS5003;28056;51.112;0.984;2022-11-14T02:36:32;17;17;
42410;PMS5003;28056;51.112;0.984;2022-11-14T02:38:59;18;15;
42410;PMS5003;28056;51.112;0.984;2022-11-14T02:41:27;18;15;
42410;PMS5003;28056;51.112;0.984;2022-11-14T02:43:54;16;16;
42410;PMS5003;28056;51.112;0.984;2022-11-14T02:46:22;18;18;
42410;PMS5003;28056;51.112;0.984;2022-11-14T02:48:49;12;12;
42410;PMS5003;28056;51.112;0.984;2022-11-14T02:51:16;14;13;
42410;PMS5003;28056;51.112;0.984;2022-11-14T02:53:44;14;13;
42410;PMS5003;28056;51.112;0.984;2022-11-14T02:56:12;16;15;
42410;PMS5003;28056;51.112;0.984;2022-11-14T02:58:39;15;14;
42410;PMS5003;28056;51.112;0.984;2022-11-14T03:01:06;18;16;
42410;PMS5003;28056;51.112;0.984;2022-11-14T03:03:34;16;16;
42410;PMS5003;28056;51.112;0.984;2022-11-14T03:06:02;18;15;
42410;PMS5003;28056;51.112;0.984;2022-11-14T03:08:30;13;13;
42410;PMS5003;28056;51.112;0.984;2022-11-14T03:11:02;18;18;
42410;PMS5003;28056;51.112;0.984;2022-11-14T03:13:30;18;18;
42410;PMS5003;28056;51.112;0.984;2022-11-14T03:16:03;15;14;
42410;PMS5003;28056;51.112;0.984;2022-11-14T03:18:31;19;19;
42410;PMS5003;28056;51.112;0.984;2022-11-14T03:21:03;23;20;
42410;PMS5003;28056;51.112;0.984;2022-11-14T03:23:31;18;14;
42410;PMS5003;28056;51.112;0.984;2022-11-14T03:25:59;19;19;
42410;PMS5003;28056;51.112;0.984;2022-11-14T03:28:27;17;17;
42410;PMS5003;28056;51.112;0.984;2022-11-14T03:30:54;15;15;
42410;PMS5003;28056;51.112;0.984;2022-11-14T03:33:22;21;21;
42410;PMS5003;28056;51.112;0.984;2022-11-14T03:35:50;18;15;
42410;PMS5003;28056;51.112;0.984;2022-11-14T03:38:18;18;17;
42410;PMS5003;28056;51.112;0.984;2022-11-14T03:40:46;18;17;
42410;PMS5003;28056;51.112;0.984;2022-11-14T03:43:14;15;15;
42410;PMS5003;28056;51.112;0.984;2022-11-14T03:45:42;20;18;
42410;PMS5003;28056;51.112;0.984;2022-11-14T03:48:10;25;20;
42410;PMS5003;28056;51.112;0.984;2022-11-14T03:50:37;21;19;
42410;PMS5003;28056;51.112;0.984;2022-11-14T03:53:05;20;18;
42410;PMS5003;28056;51.112;0.984;2022-11-14T03:55:32;17;17;
42410;PMS5003;28056;51.112;0.984;2022-11-14T03:58:00;18;18;
42410;PMS5003;28056;51.112;0.984;2022-11-14T04:00:28;18;17;
42410;PMS5003;28056;51.112;0.984;2022-11-14T04:02:55;24;18;
42410;PMS5003;28056;51.112;0.984;2022-11-14T04:05:23;20;19;
42410;PMS5003;28056;51.112;0.984;2022-11-14T04:07:51;23;23;
42410;PMS5003;28056;51.112;0.984;2022-11-14T04:10:18;18;17;
42410;PMS5003;28056;51.112;0.984;2022-11-14T04:12:46;20;20;
42410;PMS5003;28056;51.112;0.984;2022-11-14T04:15:14;25;20;
42410;PMS5003;28056;51.112;0.984;2022-11-14T04:17:42;21;19;
42410;PMS5003;28056;51.112;0.984;2022-11-14T04:20:10;24;20;
42410;PMS5003;28056;51.112;0.984;2022-11-14T04:22:38;26;25;
42410;PMS5003;28056;51.112;0.984;2022-11-14T04:25:07;18;16;
42410;PMS5003;28056;51.112;0.984;2022-11-14T04:27:35;25;25;
42410;PMS5003;28056;51.112;0.984;2022-11-14T04:30:03;30;27;
42410;PMS5003;28056;51.112;0.984;2022-11-14T04:32:31;21;19;
42410;PMS5003;28056;51.112;0.984;2022-11-14T04:34:58;24;19;
42410;PMS5003;28056;51.112;0.984;2022-11-14T04:37:26;24;22;
42410;PMS5003;28056;51.112;0.984;2022-11-14T04:39:53;22;22;
42410;PMS5003;28056;51.112;0.984;2022-11-14T04:42:20;22;21;
42410;PMS5003;28056;51.112;0.984;2022-11-14T04:44:47;20;20;
42410;PMS5003;28056;51.112;0.984;2022-11-14T04:47:14;26;26;
42410;PMS5003;28056;51.112;0.984;2022-11-14T04:49:42;22;21;
42410;PMS5003;28056;51.112;0.984;2022-11-14T04:52:10;26;21;
42410;PMS5003;28056;51.112;0.984;2022-11-14T04:54:37;25;23;
42410;PMS5003;28056;51.112;0.984;2022-11-14T04:57:04;20;19;
42410;PMS5003;28056;51.112;0.984;2022-11-14T04:59:32;24;21;
42410;PMS5003;28056;51.112;0.984;2022-11-14T05:01:59;26;22;
42410;PMS5003;28056;51.112;0.984;2022-11-14T05:04:27;20;19;
42410;PMS5003;28056;51.112;0.984;2022-11-14T05:06:55;24;19;
42410;PMS5003;28056;51.112;0.984;2022-11-14T05:09:23;24;19;
42410;PMS5003;28056;51.112;0.984;2022-11-14T05:11:50;30;25;
42410;PMS5003;28056;51.112;0.984;2022-11-14T05:14:18;26;24;
42410;PMS5003;28056;51.112;0.984;2022-11-14T05:16:45;26;22;
42410;PMS5003;28056;51.112;0.984;2022-11-14T05:19:13;21;21;
42410;PMS5003;28056;51.112;0.984;2022-11-14T05:21:40;27;25;
42410;PMS5003;28056;51.112;0.984;2022-11-14T05:24:08;29;23;
42410;PMS5003;28056;51.112;0.984;2022-11-14T05:26:35;28;23;
42410;PMS5003;28056;51.112;0.984;2022-11-14T05:29:02;26;26;
42410;PMS5003;28056;51.112;0.984;2022-11-14T05:31:30;32;30;
42410;PMS5003;28056;51.112;0.984;2022-11-14T05:33:57;36;32;
42410;PMS5003;28056;51.112;0.984;2022-11-14T05:36:24;23;23;
42410;PMS5003;28056;51.112;0.984;2022-11-14T05:38:52;25;25;
42410;PMS5003;28056;51.112;0.984;2022-11-14T05:41:20;29;27;
42410;PMS5003;28056;51.112;0.984;2022-11-14T05:43:47;23;20;
42410;PMS5003;28056;51.112;0.984;2022-11-14T05:46:15;35;29;
42410;PMS5003;28056;51.112;0.984;2022-11-14T05:48:42;35;30;
42410;PMS5003;28056;51.112;0.984;2022-11-14T05:51:10;29;26;
42410;PMS5003;28056;51.112;0.984;2022-11-14T05:53:39;40;32;
42410;PMS5003;28056;51.112;0.984;2022-11-14T05:56:08;35;33;
42410;PMS5003;28056;51.112;0.984;2022-11-14T05:58:37;36;34;
42410;PMS5003;28056;51.112;0.984;2022-11-14T06:01:05;36;28;
42410;PMS5003;28056;51.112;0.984;2022-11-14T06:03:35;36;32;
42410;PMS5003;28056;51.112;0.984;2022-11-14T06:06:05;26;26;
42410;PMS5003;28056;51.112;0.984;2022-11-14T06:08:34;30;26;
42410;PMS5003;28056;51.112;0.984;2022-11-14T06:11:03;35;31;
42410;PMS5003;28056;51.112;0.984;2022-11-14T06:13:32;38;28;
42410;PMS5003;28056;51.112;0.984;2022-11-14T06:16:00;29;28;
42410;PMS5003;28056;51.112;0.984;2022-11-14T06:18:28;33;33;
42410;PMS5003;28056;51.112;0.984;2022-11-14T06:20:57;36;31;
42410;PMS5003;28056;51.112;0.984;2022-11-14T06:23:25;29;26;
42410;PMS5003;28056;51.112;0.984;2022-11-14T06:25:56;30;29;
42410;PMS5003;28056;51.112;0.984;2022-11-14T06:28:24;33;30;
42410;PMS5003;28056;51.112;0.984;2022-11-14T06:30:55;33;24;
42410;PMS5003;28056;51.112;0.984;2022-11-14T06:33:23;35;31;
42410;PMS5003;28056;51.112;0.984;2022-11-14T06:35:55;35;35;
42410;PMS5003;28056;51.112;0.984;2022-11-14T06:38:23;29;28;
42410;PMS5003;28056;51.112;0.984;2022-11-14T06:40:51;32;28;
42410;PMS5003;28056;51.112;0.984;2022-11-14T06:43:18;35;29;
42410;PMS5003;28056;51.112;0.984;2022-11-14T06:45:45;30;28;
42410;PMS5003;28056;51.112;0.984;2022-11-14T06:48:13;31;30;
42410;PMS5003;28056;51.112;0.984;2022-11-14T06:50:40;35;34;
42410;PMS5003;28056;51.112;0.984;2022-11-14T06:53:07;36;31;
42410;PMS5003;28056;51.112;0.984;2022-11-14T06:55:35;33;33;
42410;PMS5003;28056;51.112;0.984;2022-11-14T06:58:02;40;30;
42410;PMS5003;28056;51.112;0.984;2022-11-14T07:00:30;44;33;
42410;PMS5003;28056;51.112;0.984;2022-11-14T07:02:57;31;31;
42410;PMS5003;28056;51.112;0.984;2022-11-14T07:05:25;36;28;
42410;PMS5003;28056;51.112;0.984;2022-11-14T07:07:52;35;31;
42410;PMS5003;28056;51.112;0.984;2022-11-14T07:10:19;41;34;
42410;PMS5003;28056;51.112;0.984;2022-11-14T07:12:47;39;31;
42410;PMS5003;28056;51.112;0.984;2022-11-14T07:15:14;40;35;
42410;PMS5003;28056;51.112;0.984;2022-11-14T07:17:41;40;37;
42410;PMS5003;28056;51.112;0.984;2022-11-14T07:20:09;41;35;
42410;PMS5003;28056;51.112;0.984;2022-11-14T07:22:36;41;37;
42410;PMS5003;28056;51.112;0.984;2022-11-14T07:25:05;39;36;
42410;PMS5003;28056;51.112;0.984;2022-11-14T07:27:33;48;43;
42410;PMS5003;28056;51.112;0.984;2022-11-14T07:30:00;40;36;
42410;PMS5003;28056;51.112;0.984;2022-11-14T07:32:28;42;40;
42410;PMS5003;28056;51.112;0.984;2022-11-14T07:34:55;42;39;
42410;PMS5003;28056;51.112;0.984;2022-11-14T07:37:23;40;37;
42410;PMS5003;28056;51.112;0.984;2022-11-14T07:39:50;36;36;
42410;PMS5003;28056;51.112;0.984;2022-11-14T07:42:17;36;36;
42410;PMS5003;28056;51.112;0.984;2022-11-14T07:44:44;37;35;
42410;PMS5003;28056;51.112;0.984;2022-11-14T07:47:12;37;36;
42410;PMS5003;28056;51.112;0.984;2022-11-14T07:49:39;41;37;
42410;PMS5003;28056;51.112;0.984;2022-11-14T07:52:06;35;35;
42410;PMS5003;28056;51.112;0.984;2022-11-14T07:54:33;33;29;
42410;PMS5003;28056;51.112;0.984;2022-11-14T07:57:01;50;37;
42410;PMS5003;28056;51.112;0.984;2022-11-14T07:59:28;38;38;
42410;PMS5003;28056;51.112;0.984;2022-11-14T08:01:56;38;34;
42410;PMS5003;28056;51.112;0.984;2022-11-14T08:04:23;38;35;
42410;PMS5003;28056;51.112;0.984;2022-11-14T08:06:51;37;36;
42410;PMS5003;28056;51.112;0.984;2022-11-14T08:09:18;43;40;
42410;PMS5003;28056;51.112;0.984;2022-11-14T08:11:46;43;36;
42410;PMS5003;28056;51.112;0.984;2022-11-14T08:14:13;41;37;
42410;PMS5003;28056;51.112;0.984;2022-11-14T08:16:41;48;37;
42410;PMS5003;28056;51.112;0.984;2022-11-14T08:19:08;42;38;
42410;PMS5003;28056;51.112;0.984;2022-11-14T08:21:36;42;37;
42410;PMS5003;28056;51.112;0.984;2022-11-14T08:24:04;46;43;
42410;PMS5003;28056;51.112;0.984;2022-11-14T08:26:32;41;37;
42410;PMS5003;28056;51.112;0.984;2022-11-14T08:28:59;36;33;
42410;PMS5003;28056;51.112;0.984;2022-11-14T08:31:26;35;35;
42410;PMS5003;28056;51.112;0.984;2022-11-14T08:33:54;48;45;
42410;PMS5003;28056;51.112;0.984;2022-11-14T08:36:21;51;44;
42410;PMS5003;28056;51.112;0.984;2022-11-14T08:38:49;46;38;
42410;PMS5003;28056;51.112;0.984;2022-11-14T08:41:16;39;39;
42410;PMS5003;28056;51.112;0.984;2022-11-14T08:43:44;43;37;
42410;PMS5003;28056;51.112;0.984;2022-11-14T08:46:11;41;38;
42410;PMS5003;28056;51.112;0.984;2022-11-14T08:48:38;45;39;
42410;PMS5003;28056;51.112;0.984;2022-11-14T08:51:06;39;35;
42410;PMS5003;28056;51.112;0.984;2022-11-14T08:53:33;42;41;
42410;PMS5003;28056;51.112;0.984;2022-11-14T08:56:01;40;37;
42410;PMS5003;28056;51.112;0.984;2022-11-14T08:58:29;51;45;
42410;PMS5003;28056;51.112;0.984;2022-11-14T09:00:58;37;35;
42410;PMS5003;28056;51.112;0.984;2022-11-14T09:03:27;41;39;
42410;PMS5003;28056;51.112;0.984;2022-11-14T09:05:54;48;39;
42410;PMS5003;28056;51.112;0.984;2022-11-14T09:08:22;44;43;
42410;PMS5003;28056;51.112;0.984;2022-11-14T09:10:50;47;39;
42410;PMS5003;28056;51.112;0.984;2022-11-14T09:13:18;43;39;
42410;PMS5003;28056;51.112;0.984;2022-11-14T09:15:45;41;34;
42410;PMS5003;28056;51.112;0.984;2022-11-14T09:18:13;44;39;
42410;PMS5003;28056;51.112;0.984;2022-11-14T09:20:40;34;30;
42410;PMS5003;28056;51.112;0.984;2022-11-14T09:23:08;38;33;
42410;PMS5003;28056;51.112;0.984;2022-11-14T09:25:36;35;35;
42410;PMS5003;28056;51.112;0.984;2022-11-14T09:28:03;38;37;
42410;PMS5003;28056;51.112;0.984;2022-11-14T09:30:33;41;41;
42410;PMS5003;28056;51.112;0.984;2022-11-14T09:33:03;59;53;
42410;PMS5003;28056;51.112;0.984;2022-11-14T09:35:30;53;48;
42410;PMS5003;28056;51.112;0.984;2022-11-14T09:37:59;85;78;
42410;PMS5003;28056;51.112;0.984;2022-11-14T09:40:28;59;58;
42410;PMS5003;28056;51.112;0.984;2022-11-14T09:43:01;46;42;
42410;PMS5003;28056;51.112;0.984;2022-11-14T09:45:39;40;39;
42410;PMS5003;28056;51.112;0.984;2022-11-14T09:48:15;40;38;
42410;PMS5003;28056;51.112;0.984;2022-11-14T09:50:47;43;40;
42410;PMS5003;28056;51.112;0.984;2022-11-14T09:53:27;38;38;
42410;PMS5003;28056;51.112;0.984;2022-11-14T09:55:58;39;38;
42410;PMS5003;28056;51.112;0.984;2022-11-14T09:58:27;59;47;
42410;PMS5003;28056;51.112;0.984;2022-11-14T10:00:55;53;50;
42410;PMS5003;28056;51.112;0.984;2022-11-14T10:03:31;47;45;
42410;PMS5003;28056;51.112;0.984;2022-11-14T10:06:16;49;47;
42410;PMS5003;28056;51.112;0.984;2022-11-14T10:08:58;45;43;
42410;PMS5003;28056;51.112;0.984;2022-11-14T10:11:43;43;38;
42410;PMS5003;28056;51.112;0.984;2022-11-14T10:14:22;36;33;
42410;PMS5003;28056;51.112;0.984;2022-11-14T10:17:11;39;39;
42410;PMS5003;28056;51.112;0.984;2022-11-14T10:19:48;61;48;
42410;PMS5003;28056;51.112;0.984;2022-11-14T10:22:31;43;43;
42410;PMS5003;28056;51.112;0.984;2022-11-14T10:25:17;44;40;
42410;PMS5003;28056;51.112;0.984;2022-11-14T10:27:54;40;36;
42410;PMS5003;28056;51.112;0.984;2022-11-14T10:30:36;43;41;
42410;PMS5003;28056;51.112;0.984;2022-11-14T10:33:16;40;39;
42410;PMS5003;28056;51.112;0.984;2022-11-14T10:35:53;37;37;
42410;PMS5003;28056;51.112;0.984;2022-11-14T10:38:28;39;36;
42410;PMS5003;28056;51.112;0.984;2022-11-14T10:41:01;44;37;
42410;PMS5003;28056;51.112;0.984;2022-11-14T10:43:33;42;39;
42410;PMS5003;28056;51.112;0.984;2022-11-14T10:46:05;34;34;
42410;PMS5003;28056;51.112;0.984;2022-11-14T10:48:38;38;36;
42410;PMS5003;28056;51.112;0.984;2022-11-14T10:51:11;39;39;
42410;PMS5003;28056;51.112;0.984;2022-11-14T10:53:47;37;33;
42410;PMS5003;28056;51.112;0.984;2022-11-14T10:56:21;35;32;
42410;PMS5003;28056;51.112;0.984;2022-11-14T10:58:48;41;39;
42410;PMS5003;28056;51.112;0.984;2022-11-14T11:01:31;35;35;
42410;PMS5003;28056;51.112;0.984;2022-11-14T11:04:34;36;28;
42410;PMS5003;28056;51.112;0.984;2022-11-14T11:07:17;36;35;
42410;PMS5003;28056;51.112;0.984;2022-11-14T11:09:47;41;37;
42410;PMS5003;28056;51.112;0.984;2022-11-14T11:12:37;37;31;
42410;PMS5003;28056;51.112;0.984;2022-11-14T11:15:13;34;30;
42410;PMS5003;28056;51.112;0.984;2022-11-14T11:17:52;36;35;
42410;PMS5003;28056;51.112;0.984;2022-11-14T11:20:23;29;29;
42410;PMS5003;28056;51.112;0.984;2022-11-14T11:23:04;30;29;
42410;PMS5003;28056;51.112;0.984;2022-11-14T11:25:42;36;32;
42410;PMS5003;28056;51.112;0.984;2022-11-14T11:28:11;30;28;
42410;PMS5003;28056;51.112;0.984;2022-11-14T11:30:40;27;27;
42410;PMS5003;28056;51.112;0.984;2022-11-14T11:33:22;30;28;
42410;PMS5003;28056;51.112;0.984;2022-11-14T11:35:52;33;29;
42410;PMS5003;28056;51.112;0.984;2022-11-14T11:38:23;32;31;
42410;PMS5003;28056;51.112;0.984;2022-11-14T11:40:53;27;27;
42410;PMS5003;28056;51.112;0.984;2022-11-14T11:43:29;37;32;
42410;PMS5003;28056;51.112;0.984;2022-11-14T11:46:07;38;37;
42410;PMS5003;28056;51.112;0.984;2022-11-14T11:48:41;36;34;
42410;PMS5003;28056;51.112;0.984;2022-11-14T11:51:12;41;35;
42410;PMS5003;28056;51.112;0.984;2022-11-14T11:53:44;32;29;
42410;PMS5003;28056;51.112;0.984;2022-11-14T11:56:17;32;29;
42410;PMS5003;28056;51.112;0.984;2022-11-14T11:58:48;34;30;
42410;PMS5003;28056;51.112;0.984;2022-11-14T12:01:18;39;35;
42410;PMS5003;28056;51.112;0.984;2022-11-14T12:03:46;39;36;
42410;PMS5003;28056;51.112;0.984;2022-11-14T12:06:17;33;29;
42410;PMS5003;28056;51.112;0.984;2022-11-14T12:08:50;31;27;
42410;PMS5003;28056;51.112;0.984;2022-11-14T12:11:28;28;28;
42410;PMS5003;28056;51.112;0.984;2022-11-14T12:14:03;31;26;
42410;PMS5003;28056;51.112;0.984;2022-11-14T12:16:59;32;28;
42410;PMS5003;28056;51.112;0.984;2022-11-14T12:19:40;29;29;
42410;PMS5003;28056;51.112;0.984;2022-11-14T12:22:21;30;29;
42410;PMS5003;28056;51.112;0.984;2022-11-14T12:25:07;34;33;
42410;PMS5003;28056;51.112;0.984;2022-11-14T12:27:57;33;30;
42410;PMS5003;28056;51.112;0.984;2022-11-14T12:30:34;34;31;
42410;PMS5003;28056;51.112;0.984;2022-11-14T12:33:07;32;29;
42410;PMS5003;28056;51.112;0.984;2022-11-14T12:35:39;33;30;
42410;PMS5003;28056;51.112;0.984;2022-11-14T12:38:15;26;25;
42410;PMS5003;28056;51.112;0.984;2022-11-14T12:40:47;34;31;
42410;PMS5003;28056;51.112;0.984;2022-11-14T12:43:34;37;31;
42410;PMS5003;28056;51.112;0.984;2022-11-14T12:46:03;37;34;
42410;PMS5003;28056;51.112;0.984;2022-11-14T12:48:32;35;28;
42410;PMS5003;28056;51.112;0.984;2022-11-14T12:51:02;33;33;
42410;PMS5003;28056;51.112;0.984;2022-11-14T12:53:36;32;26;
42410;PMS5003;28056;51.112;0.984;2022-11-14T12:56:09;29;28;
42410;PMS5003;28056;51.112;0.984;2022-11-14T12:58:50;34;32;
42410;PMS5003;28056;51.112;0.984;2022-11-14T13:01:36;41;35;
42410;PMS5003;28056;51.112;0.984;2022-11-14T13:04:16;34;29;
42410;PMS5003;28056;51.112;0.984;2022-11-14T13:06:57;37;34;
42410;PMS5003;28056;51.112;0.984;2022-11-14T13:09:35;34;31;
42410;PMS5003;28056;51.112;0.984;2022-11-14T13:12:40;34;33;
42410;PMS5003;28056;51.112;0.984;2022-11-14T13:15:18;32;30;
42410;PMS5003;28056;51.112;0.984;2022-11-14T13:17:58;34;34;
42410;PMS5003;28056;51.112;0.984;2022-11-14T13:20:30;33;33;
42410;PMS5003;28056;51.112;0.984;2022-11-14T13:23:00;39;32;
42410;PMS5003;28056;51.112;0.984;2022-11-14T13:25:27;36;33;
42410;PMS5003;28056;51.112;0.984;2022-11-14T13:27:55;30;27;
42410;PMS5003;28056;51.112;0.984;2022-11-14T13:31:17;37;36;
42410;PMS5003;28056;51.112;0.984;2022-11-14T13:33:45;33;31;
42410;PMS5003;28056;51.112;0.984;2022-11-14T13:36:15;42;34;
42410;PMS5003;28056;51.112;0.984;2022-11-14T13:39:02;39;38;
42410;PMS5003;28056;51.112;0.984;2022-11-14T13:41:54;32;30;
42410;PMS5003;28056;51.112;0.984;2022-11-14T13:44:42;33;29;
42410;PMS5003;28056;51.112;0.984;2022-11-14T13:49:01;36;33;
42410;PMS5003;28056;51.112;0.984;2022-11-14T13:51:44;35;30;
42410;PMS5003;28056;51.112;0.984;2022-11-14T13:54:12;30;30;
42410;PMS5003;28056;51.112;0.984;2022-11-14T13:56:42;34;27;
42410;PMS5003;28056;51.112;0.984;2022-11-14T13:59:41;34;30;
42410;PMS5003;28056;51.112;0.984;2022-11-14T14:02:31;30;30;
42410;PMS5003;28056;51.112;0.984;2022-11-14T14:05:17;35;29;
42410;PMS5003;28056;51.112;0.984;2022-11-14T14:07:57;37;35;
42410;PMS5003;28056;51.112;0.984;2022-11-14T14:10:37;34;34;
42410;PMS5003;28056;51.112;0.984;2022-11-14T14:13:15;36;29;
42410;PMS5003;28056;51.112;0.984;2022-11-14T14:15:52;33;29;
42410;PMS5003;28056;51.112;0.984;2022-11-14T14:18:31;33;30;
42410;PMS5003;28056;51.112;0.984;2022-11-14T14:21:12;34;33;
42410;PMS5003;28056;51.112;0.984;2022-11-14T14:23:51;28;28;
42410;PMS5003;28056;51.112;0.984;2022-11-14T14:26:26;34;31;
42410;PMS5003;28056;51.112;0.984;2022-11-14T14:29:05;31;30;
42410;PMS5003;28056;51.112;0.984;2022-11-14T14:31:44;40;40;
42410;PMS5003;28056;51.112;0.984;2022-11-14T14:34:27;36;33;
42410;PMS5003;28056;51.112;0.984;2022-11-14T14:36:57;38;36;
42410;PMS5003;28056;51.112;0.984;2022-11-14T14:39:24;41;36;
42410;PMS5003;28056;51.112;0.984;2022-11-14T14:41:54;35;30;
42410;PMS5003;28056;51.112;0.984;2022-11-14T14:44:25;36;36;
42410;PMS5003;28056;51.112;0.984;2022-11-14T14:46:54;37;36;
42410;PMS5003;28056;51.112;0.984;2022-11-14T14:49:22;37;32;
42410;PMS5003;28056;51.112;0.984;2022-11-14T14:51:52;44;40;
42410;PMS5003;28056;51.112;0.984;2022-11-14T14:54:20;39;38;
42410;PMS5003;28056;51.112;0.984;2022-11-14T14:56:51;42;34;
42410;PMS5003;28056;51.112;0.984;2022-11-14T14:59:21;38;37;
42410;PMS5003;28056;51.112;0.984;2022-11-14T15:01:50;45;37;
42410;PMS5003;28056;51.112;0.984;2022-11-14T15:04:18;39;39;
42410;PMS5003;28056;51.112;0.984;2022-11-14T15:06:47;45;41;
42410;PMS5003;28056;51.112;0.984;2022-11-14T15:09:16;35;32;
42410;PMS5003;28056;51.112;0.984;2022-11-14T15:11:46;40;38;
42410;PMS5003;28056;51.112;0.984;2022-11-14T15:14:17;37;34;
42410;PMS5003;28056;51.112;0.984;2022-11-14T15:16:47;29;28;
42410;PMS5003;28056;51.112;0.984;2022-11-14T15:19:18;34;32;
42410;PMS5003;28056;51.112;0.984;2022-11-14T15:22:04;33;30;
42410;PMS5003;28056;51.112;0.984;2022-11-14T15:25:02;36;31;
42410;PMS5003;28056;51.112;0.984;2022-11-14T15:27:31;35;31;
42410;PMS5003;28056;51.112;0.984;2022-11-14T15:29:59;37;33;
42410;PMS5003;28056;51.112;0.984;2022-11-14T15:32:29;36;34;
42410;PMS5003;28056;51.112;0.984;2022-11-14T15:35:23;33;31;
42410;PMS5003;28056;51.112;0.984;2022-11-14T15:38:03;40;33;
42410;PMS5003;28056;51.112;0.984;2022-11-14T15:40:32;34;32;
42410;PMS5003;28056;51.112;0.984;2022-11-14T15:43:00;28;26;
42410;PMS5003;28056;51.112;0.984;2022-11-14T15:46:01;38;35;
42410;PMS5003;28056;51.112;0.984;2022-11-14T15:48:28;41;37;
42410;PMS5003;28056;51.112;0.984;2022-11-14T15:50:57;33;32;
42410;PMS5003;28056;51.112;0.984;2022-11-14T15:53:25;41;36;
42410;PMS5003;28056;51.112;0.984;2022-11-14T15:55:53;31;28;
42410;PMS5003;28056;51.112;0.984;2022-11-14T15:58:21;40;36;
42410;PMS5003;28056;51.112;0.984;2022-11-14T16:00:48;36;32;
42410;PMS5003;28056;51.112;0.984;2022-11-14T16:03:19;41;38;
42410;PMS5003;28056;51.112;0.984;2022-11-14T16:05:48;37;34;
42410;PMS5003;28056;51.112;0.984;2022-11-14T16:08:15;38;35;
42410;PMS5003;28056;51.112;0.984;2022-11-14T16:10:43;36;33;
42410;PMS5003;28056;51.112;0.984;2022-11-14T16:13:11;40;39;
42410;PMS5003;28056;51.112;0.984;2022-11-14T16:15:38;37;30;
42410;PMS5003;28056;51.112;0.984;2022-11-14T16:18:06;42;35;
42410;PMS5003;28056;51.112;0.984;2022-11-14T16:20:33;39;36;
42410;PMS5003;28056;51.112;0.984;2022-11-14T16:23:00;37;35;
42410;PMS5003;28056;51.112;0.984;2022-11-14T16:25:28;33;32;
42410;PMS5003;28056;51.112;0.984;2022-11-14T16:27:56;35;31;
42410;PMS5003;28056;51.112;0.984;2022-11-14T16:30:24;40;34;
42410;PMS5003;28056;51.112;0.984;2022-11-14T16:32:52;30;27;
42410;PMS5003;28056;51.112;0.984;2022-11-14T16:35:20;35;34;
42410;PMS5003;28056;51.112;0.984;2022-11-14T16:37:49;39;35;
42410;PMS5003;28056;51.112;0.984;2022-11-14T16:40:17;28;28;
42410;PMS5003;28056;51.112;0.984;2022-11-14T16:42:46;34;34;
42410;PMS5003;28056;51.112;0.984;2022-11-14T16:45:14;27;24;
42410;PMS5003;28056;51.112;0.984;2022-11-14T16:47:42;32;27;